createdAt,value
2023-05-03T00:02:17.570Z,76.48
2023-05-03T00:04:46.240Z,76.39
2023-05-03T00:07:14.349Z,77.17
2023-05-03T00:09:42.054Z,77.33
2023-05-03T00:12:09.705Z,77.31
2023-05-03T00:14:38.626Z,77.99
2023-05-03T00:17:06.418Z,77.88
2023-05-03T00:19:35.595Z,78.04
2023-05-03T00:22:03.853Z,78.83
2023-05-03T00:24:31.539Z,78.37
2023-05-03T00:26:59.196Z,77.99
2023-05-03T00:29:26.796Z,78.23
2023-05-03T00:31:55.669Z,78.74
2023-05-03T00:34:23.327Z,79.54
2023-05-03T00:36:51.391Z,79.47
2023-05-03T00:39:19.044Z,78.98
2023-05-03T00:41:46.705Z,80.53
2023-05-03T00:44:14.464Z,81.40
2023-05-03T00:46:42.349Z,81.78
2023-05-03T00:49:11.579Z,81.08
2023-05-03T00:51:39.516Z,80.96
2023-05-03T00:54:07.345Z,81.12
2023-05-03T00:56:44.268Z,81.39
2023-05-03T00:59:16.061Z,81.37
2023-05-03T01:01:43.777Z,81.39
2023-05-03T01:04:12.871Z,81.51
2023-05-03T01:06:45.458Z,82.01
2023-05-03T01:09:18.860Z,82.10
2023-05-03T01:11:54.361Z,81.27
2023-05-03T01:14:30.719Z,82.17
2023-05-03T01:17:05.538Z,82.66
2023-05-03T01:19:38.863Z,83.58
2023-05-03T01:22:18.944Z,82.60
2023-05-03T01:24:51.960Z,83.04
2023-05-03T01:27:21.195Z,83.39
2023-05-03T01:29:48.819Z,83.58
2023-05-03T01:32:25.060Z,83.80
2023-05-03T01:35:02.802Z,83.36
2023-05-03T01:37:31.129Z,84.36
2023-05-03T01:40:02.314Z,84.95
2023-05-03T01:42:33.262Z,85.15
2023-05-03T01:45:04.021Z,86.46
2023-05-03T01:47:31.891Z,86.85
2023-05-03T01:49:59.592Z,86.98
2023-05-03T01:52:27.423Z,87.18
2023-05-03T01:54:55.085Z,87.12
2023-05-03T01:57:22.787Z,87.22
2023-05-03T01:59:51.824Z,87.70
2023-05-03T02:02:19.514Z,88.89
2023-05-03T02:04:47.353Z,91.71
2023-05-03T02:07:15.215Z,92.27
2023-05-03T02:09:42.904Z,91.93
2023-05-03T02:12:11.365Z,91.83
2023-05-03T02:14:39.208Z,92.07
2023-05-03T02:17:08.763Z,92.48
2023-05-03T02:19:36.501Z,92.03
2023-05-03T02:22:04.118Z,91.49
2023-05-03T02:24:31.770Z,91.67
2023-05-03T02:26:59.506Z,90.81
2023-05-03T02:29:27.167Z,90.53
2023-05-03T02:31:54.960Z,91.38
2023-05-03T02:34:24.334Z,91.45
2023-05-03T02:36:54.337Z,91.27
2023-05-03T02:39:21.999Z,91.73
2023-05-03T02:41:49.616Z,91.78
2023-05-03T02:44:17.389Z,91.88
2023-05-03T02:46:45.436Z,91.96
2023-05-03T02:49:13.326Z,91.58
2023-05-03T02:51:42.594Z,91.61
2023-05-03T02:54:10.260Z,92.36
2023-05-03T02:56:38.095Z,92.42
2023-05-03T02:59:05.798Z,92.23
2023-05-03T03:01:35.001Z,92.64
2023-05-03T03:04:02.736Z,94.17
2023-05-03T03:06:31.475Z,93.68
2023-05-03T03:09:00.665Z,94.55
2023-05-03T03:11:28.280Z,93.57
2023-05-03T03:13:55.954Z,92.72
2023-05-03T03:16:23.627Z,93.01
2023-05-03T03:18:51.421Z,93.33
2023-05-03T03:21:19.106Z,92.99
2023-05-03T03:23:46.756Z,92.81
2023-05-03T03:26:15.888Z,92.40
2023-05-03T03:28:43.557Z,93.66
2023-05-03T03:31:11.462Z,94.48
2023-05-03T03:33:39.179Z,94.59
2023-05-03T03:36:10.123Z,93.80
2023-05-03T03:38:37.775Z,94.56
2023-05-03T03:41:05.487Z,96.13
2023-05-03T03:43:34.429Z,96.55
2023-05-03T03:46:02.015Z,96.89
2023-05-03T03:48:29.627Z,96.84
2023-05-03T03:50:57.338Z,97.07
2023-05-03T03:53:24.972Z,97.54
2023-05-03T03:55:52.606Z,97.75
2023-05-03T03:58:20.370Z,97.93
2023-05-03T04:00:49.667Z,99.82
2023-05-03T04:03:17.595Z,100.00
2023-05-03T04:05:45.927Z,100.00
2023-05-03T04:08:13.698Z,100.00
2023-05-03T04:10:41.396Z,99.82
2023-05-03T04:13:09.274Z,98.97
2023-05-03T04:15:36.876Z,99.09
2023-05-03T04:18:06.583Z,99.00
2023-05-03T04:20:34.761Z,98.75
2023-05-03T04:23:02.586Z,99.49
2023-05-03T04:25:31.780Z,99.06
2023-05-03T04:27:59.918Z,99.92
2023-05-03T04:30:28.740Z,99.22
2023-05-03T04:32:58.392Z,100.00
2023-05-03T04:35:28.765Z,100.00
2023-05-03T04:37:56.836Z,100.00
2023-05-03T04:40:24.580Z,100.00
2023-05-03T04:42:52.401Z,100.00
2023-05-03T04:45:20.840Z,100.00
2023-05-03T04:47:48.853Z,99.31
2023-05-03T04:50:16.741Z,99.01
2023-05-03T04:52:45.822Z,97.79
2023-05-03T04:55:14.086Z,97.80
2023-05-03T04:57:41.721Z,97.43
2023-05-03T05:00:11.261Z,97.13
2023-05-03T05:02:39.291Z,96.01
2023-05-03T05:05:07.913Z,96.34
2023-05-03T05:07:35.585Z,98.51
2023-05-03T05:10:05.223Z,98.81
2023-05-03T05:12:33.149Z,99.09
2023-05-03T05:15:00.771Z,100.00
2023-05-03T05:17:28.567Z,99.56
2023-05-03T05:19:57.425Z,98.92
2023-05-03T05:22:26.097Z,98.90
2023-05-03T05:24:53.726Z,99.11
2023-05-03T05:27:23.787Z,99.83
2023-05-03T05:29:51.481Z,99.53
2023-05-03T05:32:19.136Z,98.88
2023-05-03T05:34:52.863Z,99.05
2023-05-03T05:37:20.508Z,98.54
2023-05-03T05:39:48.159Z,96.54
2023-05-03T05:42:16.104Z,97.13
2023-05-03T05:44:45.079Z,98.46
2023-05-03T05:47:15.168Z,96.53
2023-05-03T05:49:43.622Z,95.16
2023-05-03T05:52:11.400Z,94.13
2023-05-03T05:54:38.995Z,91.67
2023-05-03T05:57:06.698Z,92.07
2023-05-03T05:59:34.232Z,92.26
2023-05-03T06:02:03.423Z,91.72
2023-05-03T06:04:31.003Z,89.22
2023-05-03T06:06:58.615Z,88.28
2023-05-03T06:09:26.329Z,87.78
2023-05-03T06:11:53.938Z,87.06
2023-05-03T06:14:21.589Z,86.02
2023-05-03T06:16:49.413Z,85.69
2023-05-03T06:19:18.413Z,85.38
2023-05-03T06:21:46.068Z,84.59
2023-05-03T06:24:14.828Z,84.97
2023-05-03T06:26:42.476Z,84.84
2023-05-03T06:29:10.054Z,84.50
2023-05-03T06:31:37.796Z,84.27
2023-05-03T06:34:06.087Z,81.65
2023-05-03T06:36:35.660Z,77.43
2023-05-03T06:39:04.564Z,76.61
2023-05-03T06:41:32.855Z,76.78
2023-05-03T06:44:00.475Z,77.48
2023-05-03T06:46:28.528Z,75.80
2023-05-03T06:48:57.602Z,74.08
2023-05-03T06:51:29.745Z,71.82
2023-05-03T06:54:00.376Z,69.08
2023-05-03T06:56:28.510Z,68.05
2023-05-03T06:58:56.137Z,67.32
2023-05-03T07:01:23.775Z,66.79
2023-05-03T07:03:51.439Z,62.08
2023-05-03T07:06:19.309Z,60.49
2023-05-03T07:08:47.020Z,60.67
2023-05-03T07:11:16.054Z,61.42
2023-05-03T07:13:43.639Z,62.94
2023-05-03T07:16:11.347Z,61.71
2023-05-03T07:18:39.207Z,59.11
2023-05-03T07:21:09.201Z,59.19
2023-05-03T07:23:37.100Z,58.22
2023-05-03T07:26:04.777Z,57.38
2023-05-03T07:28:33.733Z,58.91
2023-05-03T07:31:01.529Z,57.91
2023-05-03T07:33:29.225Z,58.72
2023-05-03T07:35:57.151Z,59.53
2023-05-03T07:38:24.693Z,58.21
2023-05-03T07:40:52.288Z,58.37
2023-05-03T07:43:23.523Z,58.96
2023-05-03T07:45:52.429Z,57.27
2023-05-03T07:48:20.065Z,56.50
2023-05-03T07:50:47.783Z,57.79
2023-05-03T07:53:15.773Z,57.66
2023-05-03T07:55:43.518Z,58.89
2023-05-03T07:58:11.312Z,58.21
2023-05-03T08:00:38.904Z,56.24
2023-05-03T08:03:08.106Z,55.60
2023-05-03T08:05:36.672Z,56.02
2023-05-03T08:08:05.552Z,55.44
2023-05-03T08:10:37.600Z,55.36
2023-05-03T08:13:06.267Z,55.34
2023-05-03T08:15:34.281Z,55.32
2023-05-03T08:18:02.092Z,55.39
2023-05-03T08:20:31.266Z,56.12
2023-05-03T08:22:59.313Z,55.42
2023-05-03T08:25:28.241Z,54.80
2023-05-03T08:27:55.915Z,55.81
2023-05-03T08:30:23.992Z,55.53
2023-05-03T08:32:51.749Z,55.75
2023-05-03T08:35:19.562Z,54.96
2023-05-03T08:37:48.674Z,54.11
2023-05-03T08:40:16.666Z,54.06
2023-05-03T08:42:45.516Z,53.73
2023-05-03T08:45:16.118Z,53.18
2023-05-03T08:47:44.798Z,52.52
2023-05-03T08:50:14.080Z,52.76
2023-05-03T08:52:43.228Z,53.35
2023-05-03T08:55:12.354Z,51.87
2023-05-03T08:57:41.122Z,51.95
2023-05-03T09:00:11.103Z,52.30
2023-05-03T09:02:39.826Z,52.20
2023-05-03T09:05:32.610Z,51.63
2023-05-03T09:08:05.239Z,51.26
2023-05-03T09:10:37.552Z,51.23
2023-05-03T09:13:05.141Z,51.63
2023-05-03T09:15:33.064Z,51.48
2023-05-03T09:18:12.219Z,51.29
2023-05-03T09:20:41.814Z,51.40
2023-05-03T09:23:10.553Z,51.77
2023-05-03T09:25:46.884Z,51.49
2023-05-03T09:28:15.393Z,52.13
2023-05-03T09:30:44.579Z,50.82
2023-05-03T09:33:12.406Z,50.75
2023-05-03T09:35:56.180Z,51.28
2023-05-03T09:38:28.023Z,51.83
2023-05-03T09:40:57.482Z,50.21
2023-05-03T09:43:25.517Z,50.21
2023-05-03T09:45:54.317Z,50.81
2023-05-03T09:48:23.711Z,50.88
2023-05-03T09:50:52.320Z,50.84
2023-05-03T09:53:22.290Z,50.98
2023-05-03T09:55:51.144Z,50.54
2023-05-03T09:58:21.735Z,51.03
2023-05-03T10:00:52.571Z,50.65
2023-05-03T10:03:25.487Z,51.04
2023-05-03T10:05:54.023Z,50.40
2023-05-03T10:08:28.868Z,50.41
2023-05-03T10:10:56.709Z,50.25
2023-05-03T10:13:26.025Z,50.35
2023-05-03T10:15:59.737Z,50.11
2023-05-03T10:18:31.915Z,49.08
2023-05-03T10:21:04.521Z,49.98
2023-05-03T10:23:32.245Z,49.12
2023-05-03T10:26:16.230Z,48.94
2023-05-03T10:28:45.812Z,48.78
2023-05-03T10:31:45.898Z,48.34
2023-05-03T10:34:24.612Z,47.22
2023-05-03T10:36:54.205Z,47.30
2023-05-03T10:39:22.003Z,47.42
2023-05-03T10:42:09.233Z,47.55
2023-05-03T10:44:42.405Z,46.06
2023-05-03T10:47:14.643Z,46.30
2023-05-03T10:49:42.544Z,46.14
2023-05-03T10:52:48.993Z,47.26
2023-05-03T10:55:18.737Z,46.97
2023-05-03T10:57:48.069Z,46.70
2023-05-03T11:00:22.030Z,45.40
2023-05-03T11:03:10.881Z,45.21
2023-05-03T11:05:39.430Z,46.08
2023-05-03T11:08:14.922Z,47.17
2023-05-03T11:10:42.687Z,47.36
2023-05-03T11:13:10.422Z,47.09
2023-05-03T11:15:40.000Z,46.98
2023-05-03T11:18:08.407Z,47.05
2023-05-03T11:20:37.047Z,46.72
2023-05-03T11:23:05.869Z,47.56
2023-05-03T11:25:34.338Z,47.59
2023-05-03T11:28:02.497Z,47.55
2023-05-03T11:30:30.617Z,47.05
2023-05-03T11:33:00.409Z,47.12
2023-05-03T11:35:30.309Z,47.00
2023-05-03T11:37:57.969Z,47.21
2023-05-03T11:40:26.166Z,46.23
2023-05-03T11:42:58.835Z,45.11
2023-05-03T11:45:30.591Z,44.06
2023-05-03T11:48:00.261Z,44.57
2023-05-03T11:50:44.506Z,43.49
2023-05-03T11:53:12.895Z,43.63
2023-05-03T11:55:42.982Z,42.51
2023-05-03T11:58:14.509Z,42.08
2023-05-03T12:00:45.041Z,41.15
2023-05-03T12:03:17.963Z,41.20
2023-05-03T12:05:48.383Z,40.80
2023-05-03T12:08:20.987Z,40.04
2023-05-03T12:10:50.880Z,40.53
2023-05-03T12:13:30.487Z,40.12
2023-05-03T12:16:10.832Z,39.92
2023-05-03T12:18:51.395Z,40.16
2023-05-03T12:23:55.797Z,39.99
2023-05-03T12:26:26.370Z,39.22
2023-05-03T12:28:56.654Z,40.15
2023-05-03T12:31:24.972Z,39.37
2023-05-03T12:34:19.767Z,39.14
2023-05-03T12:36:48.684Z,39.62
2023-05-03T12:39:16.957Z,39.67
2023-05-03T12:44:17.230Z,38.95
2023-05-03T12:46:45.847Z,39.66
2023-05-03T12:49:15.791Z,39.77
2023-05-03T12:51:46.361Z,38.35
2023-05-03T12:54:18.965Z,38.23
2023-05-03T12:56:48.309Z,38.48
2023-05-03T13:02:41.570Z,38.47
2023-05-03T13:04:55.916Z,38.52
2023-05-03T13:07:28.486Z,37.96
2023-05-03T13:12:28.620Z,37.84
2023-05-03T13:14:56.420Z,37.84
2023-05-03T13:17:24.135Z,37.10
2023-05-03T13:19:53.998Z,37.08
2023-05-03T13:22:21.745Z,36.67
2023-05-03T13:24:50.067Z,36.27
2023-05-03T13:27:17.923Z,36.62
2023-05-03T13:29:48.318Z,36.95
2023-05-03T13:32:17.159Z,36.31
2023-05-03T13:34:45.231Z,36.80
2023-05-03T13:37:18.289Z,36.48
2023-05-03T13:39:46.668Z,35.76
2023-05-03T13:42:14.426Z,36.01
2023-05-03T13:44:42.579Z,36.09
2023-05-03T13:47:10.515Z,35.68
2023-05-03T13:49:38.175Z,35.82
2023-05-03T13:52:05.975Z,35.51
2023-05-03T13:54:35.042Z,34.94
2023-05-03T13:57:02.704Z,35.58
2023-05-03T13:59:30.760Z,34.96
2023-05-03T14:02:00.319Z,35.04
2023-05-03T14:04:28.023Z,34.20
2023-05-03T14:06:55.780Z,35.23
2023-05-03T14:09:23.564Z,34.57
2023-05-03T14:11:53.687Z,34.60
2023-05-03T14:14:22.409Z,34.63
2023-05-03T14:16:50.213Z,34.70
2023-05-03T14:19:18.228Z,34.15
2023-05-03T14:21:49.479Z,34.08
2023-05-03T14:24:17.259Z,34.09
2023-05-03T14:26:45.225Z,35.18
2023-05-03T14:29:15.252Z,34.06
2023-05-03T14:31:43.315Z,33.62
2023-05-03T14:34:12.929Z,33.46
2023-05-03T14:36:43.696Z,33.76
2023-05-03T14:39:14.365Z,33.90
2023-05-03T14:41:45.206Z,33.98
2023-05-03T14:44:14.219Z,34.40
2023-05-03T14:46:42.008Z,34.55
2023-05-03T14:49:09.838Z,34.49
2023-05-03T14:51:37.549Z,34.95
2023-05-03T14:54:05.164Z,34.73
2023-05-03T14:56:32.944Z,34.39
2023-05-03T14:59:01.266Z,33.80
2023-05-03T15:01:33.024Z,34.12
2023-05-03T15:04:00.819Z,34.59
2023-05-03T15:06:31.466Z,33.97
2023-05-03T15:08:59.477Z,34.59
2023-05-03T15:11:28.142Z,35.08
2023-05-03T15:13:55.935Z,35.19
2023-05-03T15:16:24.127Z,34.67
2023-05-03T15:18:53.123Z,35.12
2023-05-03T15:21:22.214Z,35.87
2023-05-03T15:23:51.546Z,35.95
2023-05-03T15:26:19.129Z,36.17
2023-05-03T15:28:46.788Z,36.56
2023-05-03T15:31:15.126Z,36.74
2023-05-03T15:33:45.839Z,38.24
2023-05-03T15:36:16.654Z,37.10
2023-05-03T15:38:44.748Z,37.33
2023-05-03T15:41:12.393Z,38.14
2023-05-03T15:43:40.020Z,37.81
2023-05-03T15:46:08.044Z,37.62
2023-05-03T15:48:36.098Z,36.89
2023-05-03T15:51:03.908Z,37.26
2023-05-03T15:53:33.002Z,37.52
2023-05-03T15:56:02.438Z,37.83
2023-05-03T15:58:30.429Z,37.50
2023-05-03T16:00:59.134Z,37.10
2023-05-03T16:03:28.524Z,37.40
2023-05-03T16:05:57.049Z,38.09
2023-05-03T16:08:24.623Z,38.19
2023-05-03T16:10:53.709Z,38.31
2023-05-03T16:13:21.948Z,38.58
2023-05-03T16:15:52.349Z,38.00
2023-05-03T16:18:20.366Z,37.88
2023-05-03T16:20:47.970Z,38.42
2023-05-03T16:23:15.850Z,38.98
2023-05-03T16:25:43.704Z,39.25
2023-05-03T16:28:12.922Z,39.25
2023-05-03T16:30:41.002Z,39.55
2023-05-03T16:33:08.873Z,39.33
2023-05-03T16:35:36.553Z,39.46
2023-05-03T16:38:06.598Z,39.62
2023-05-03T16:40:34.369Z,39.90
2023-05-03T16:43:02.091Z,40.80
2023-05-03T16:45:31.423Z,39.88
2023-05-03T16:48:00.047Z,39.97
2023-05-03T16:50:29.248Z,39.69
2023-05-03T16:52:56.956Z,39.45
2023-05-03T16:55:24.531Z,40.07
2023-05-03T16:57:52.181Z,39.92
2023-05-03T17:00:20.877Z,39.89
2023-05-03T17:02:49.973Z,39.88
2023-05-03T17:05:20.013Z,40.08
2023-05-03T17:07:47.658Z,40.07
2023-05-03T17:10:15.609Z,40.12
2023-05-03T17:12:43.528Z,40.41
2023-05-03T17:15:12.274Z,39.85
2023-05-03T17:17:40.300Z,40.19
2023-05-03T17:20:12.883Z,40.18
2023-05-03T17:22:40.514Z,40.47
2023-05-03T17:25:09.609Z,40.00
2023-05-03T17:27:37.979Z,40.43
2023-05-03T17:30:06.848Z,40.04
2023-05-03T17:32:34.722Z,40.55
2023-05-03T17:35:02.531Z,40.61
2023-05-03T17:37:31.509Z,40.21
2023-05-03T17:39:59.168Z,40.52
2023-05-03T17:42:27.122Z,40.55
2023-05-03T17:44:55.228Z,40.65
2023-05-03T17:47:25.395Z,40.98
2023-05-03T17:49:53.285Z,40.98
2023-05-03T17:52:21.072Z,40.89
2023-05-03T17:54:51.070Z,40.90
2023-05-03T17:57:20.456Z,41.14
2023-05-03T17:59:48.696Z,41.54
2023-05-03T18:02:17.470Z,41.45
2023-05-03T18:04:45.179Z,41.50
2023-05-03T18:07:14.929Z,41.54
2023-05-03T18:09:42.537Z,41.63
2023-05-03T18:12:13.840Z,41.50
2023-05-03T18:14:42.577Z,41.45
2023-05-03T18:17:10.379Z,41.09
2023-05-03T18:19:37.939Z,41.22
2023-05-03T18:22:07.040Z,41.28
2023-05-03T18:24:34.608Z,41.25
2023-05-03T18:27:02.523Z,40.96
2023-05-03T18:29:31.431Z,40.97
2023-05-03T18:32:01.227Z,41.20
2023-05-03T18:34:30.506Z,41.37
2023-05-03T18:37:00.266Z,41.56
2023-05-03T18:39:27.980Z,41.42
2023-05-03T18:41:56.632Z,41.80
2023-05-03T18:44:25.668Z,41.63
2023-05-03T18:46:55.443Z,41.74
2023-05-03T18:49:23.633Z,41.65
2023-05-03T18:51:51.452Z,42.10
2023-05-03T18:54:20.451Z,42.60
2023-05-03T18:56:48.359Z,42.81
2023-05-03T18:59:16.190Z,42.68
2023-05-03T19:01:44.310Z,43.11
2023-05-03T19:04:14.625Z,43.32
2023-05-03T19:06:42.492Z,43.48
2023-05-03T19:09:11.818Z,43.56
2023-05-03T19:11:41.804Z,43.99
2023-05-03T19:14:09.741Z,43.97
2023-05-03T19:16:37.499Z,44.23
2023-05-03T19:19:05.467Z,44.55
2023-05-03T19:21:37.860Z,44.74
2023-05-03T19:24:06.550Z,44.79
2023-05-03T19:26:34.125Z,45.63
2023-05-03T19:29:02.040Z,45.70
2023-05-03T19:31:30.257Z,45.93
2023-05-03T19:33:57.822Z,46.03
2023-05-03T19:36:25.626Z,45.83
2023-05-03T19:38:54.776Z,46.16
2023-05-03T19:41:22.842Z,46.10
2023-05-03T19:43:55.134Z,46.32
2023-05-03T19:46:22.900Z,46.42
2023-05-03T19:48:50.560Z,46.85
2023-05-03T19:51:18.714Z,46.64
2023-05-03T19:53:48.740Z,46.77
2023-05-03T19:56:19.550Z,47.08
2023-05-03T19:58:47.354Z,47.45
2023-05-03T20:01:14.993Z,47.57
2023-05-03T20:03:43.471Z,47.55
2023-05-03T20:06:14.663Z,47.40
2023-05-03T20:08:42.436Z,47.68
2023-05-03T20:11:10.980Z,47.68
2023-05-03T20:13:40.338Z,47.51
2023-05-03T20:16:08.136Z,47.62
2023-05-03T20:18:35.996Z,47.77
2023-05-03T20:21:05.718Z,47.78
2023-05-03T20:23:37.835Z,48.19
2023-05-03T20:26:08.158Z,48.42
2023-05-03T20:28:37.235Z,48.89
2023-05-03T20:31:06.734Z,49.18
2023-05-03T20:33:34.557Z,49.33
2023-05-03T20:36:02.643Z,49.76
2023-05-03T20:38:30.487Z,50.19
2023-05-03T20:40:58.150Z,50.67
2023-05-03T20:43:25.994Z,50.58
2023-05-03T20:45:54.254Z,50.66
2023-05-03T20:48:23.429Z,50.79
2023-05-03T20:50:51.093Z,51.16
2023-05-03T20:53:18.746Z,51.26
2023-05-03T20:55:46.965Z,52.22
2023-05-03T20:58:15.988Z,52.34
2023-05-03T21:00:43.554Z,52.14
2023-05-03T21:03:15.499Z,52.31
2023-05-03T21:05:44.498Z,52.39
2023-05-03T21:08:12.206Z,52.38
2023-05-03T21:10:40.678Z,52.57
2023-05-03T21:13:08.651Z,52.48
2023-05-03T21:15:37.958Z,52.91
2023-05-03T21:18:06.563Z,52.71
2023-05-03T21:20:34.520Z,53.47
2023-05-03T21:23:03.529Z,53.94
2023-05-03T21:25:31.212Z,54.67
2023-05-03T21:28:01.342Z,55.51
2023-05-03T21:30:29.002Z,55.71
2023-05-03T21:32:57.026Z,56.13
2023-05-03T21:35:28.266Z,56.30
2023-05-03T21:38:02.092Z,56.85
2023-05-03T21:40:33.787Z,57.02
2023-05-03T21:43:04.226Z,58.20
2023-05-03T21:45:32.226Z,58.61
2023-05-03T21:48:00.583Z,58.31
2023-05-03T21:50:28.797Z,58.54
2023-05-03T21:52:56.363Z,58.46
2023-05-03T21:55:23.942Z,58.41
2023-05-03T21:57:52.938Z,58.57
2023-05-03T22:00:20.790Z,59.79
2023-05-03T22:02:48.575Z,59.48
2023-05-03T22:05:16.374Z,60.56
2023-05-03T22:07:44.444Z,60.58
2023-05-03T22:10:12.048Z,61.33
2023-05-03T22:12:40.293Z,62.05
2023-05-03T22:15:10.681Z,63.09
2023-05-03T22:17:38.590Z,63.61
2023-05-03T22:20:07.685Z,63.28
2023-05-03T22:22:35.417Z,63.68
2023-05-03T22:25:03.194Z,64.47
2023-05-03T22:27:30.813Z,64.14
2023-05-03T22:29:58.373Z,64.51
2023-05-03T22:32:27.327Z,64.30
2023-05-03T22:34:54.960Z,63.33
2023-05-03T22:37:22.978Z,63.96
2023-05-03T22:39:50.559Z,63.49
2023-05-03T22:42:18.386Z,64.98
2023-05-03T22:44:45.948Z,66.42
2023-05-03T22:47:13.537Z,67.65
2023-05-03T22:49:42.465Z,66.76
2023-05-03T22:52:10.057Z,68.49
2023-05-03T22:54:37.702Z,66.56
2023-05-03T22:57:05.729Z,65.71
2023-05-03T22:59:33.540Z,65.60
2023-05-03T23:02:01.146Z,65.24
2023-05-03T23:04:28.703Z,65.26
2023-05-03T23:06:57.807Z,65.68
2023-05-03T23:09:25.702Z,64.81
2023-05-03T23:11:53.225Z,64.29
2023-05-03T23:14:20.833Z,64.50
2023-05-03T23:16:48.594Z,65.38
2023-05-03T23:19:16.202Z,65.27
2023-05-03T23:21:43.923Z,65.75
2023-05-03T23:24:12.854Z,66.58
2023-05-03T23:26:40.396Z,65.99
2023-05-03T23:29:09.429Z,67.79
2023-05-03T23:31:38.455Z,67.22
2023-05-03T23:34:06.927Z,68.08
2023-05-03T23:36:34.547Z,67.58
2023-05-03T23:39:02.796Z,68.52
2023-05-03T23:41:33.255Z,68.74
2023-05-03T23:44:00.847Z,69.26
2023-05-03T23:46:28.521Z,69.52
2023-05-03T23:48:56.182Z,69.71
2023-05-03T23:51:23.758Z,69.96
2023-05-03T23:53:51.412Z,70.14
2023-05-03T23:56:19.062Z,69.99
2023-05-03T23:58:47.988Z,69.74
